Spirit Of New York — WCW9332 — position and weather

sailwx.info

Track history (hours):
 
Tides and Currents Weather Stations Pressure Air Temp Water Temp Dewpoint Dewpoint Depression Visibility Wind Speed Wind Dir Waves Ship Positions

Spirit Of New York

Owner: SPIRIT CRUISES LLC, NEW YORK, NY. More information available from US FCC via Universal Licensing System and Coast Guard Vessel Documentation Center.

Last reported at 2016-Jun-27 17:33 UTC. Time now 2016-Jun-28 11:38 UTC.
Position N 40°42' W 074°02'.

Length 62 m.

Type: Passenger vessel. MMSI: 338897000.

Date/timePositionNaut miles runAvg speedWind from/ knotsBaromVisibWave heightAir tempDewpointWater temp
2016-Jun-27 17:33N 40°42' W 074°02'1 1.0
2016-Jun-27 16:33N 40°43' W 074°01'2 0.1
2016-Jun-27 02:18N 40°45' W 074°01'2 2.1
2016-Jun-27 01:33N 40°44' W 074°02'2 1.6
2016-Jun-27 00:33N 40°42' W 074°01'3 0.5
2016-Jun-26 18:07N 40°45' W 074°01'1 1.2
2016-Jun-26 17:33N 40°44' W 074°01'2 2.4
2016-Jun-26 16:33N 40°42' W 074°01'3 0.2
2016-Jun-26 02:33N 40°45' W 074°01'0 0.0
2016-Jun-26 01:33N 40°45' W 074°01'3 3.5
2016-Jun-26 00:33N 40°42' W 074°02'4 4.2
2016-Jun-25 23:33N 40°46' W 074°01'1 0.8
2016-Jun-25 22:33N 40°45' W 074°01'0 0.0
2016-Jun-25 21:33N 40°45' W 074°01'0 0.0
2016-Jun-25 20:33N 40°45' W 074°01'0 0.0
2016-Jun-25 19:33N 40°45' W 074°01'1 0.8
2016-Jun-25 18:33N 40°44' W 074°01'3 2.7
2016-Jun-25 17:33N 40°42' W 074°00'4 4.4
2016-Jun-25 16:33N 40°46' W 074°00'1 1.4
2016-Jun-25 15:33N 40°45' W 074°01'0 0.0
2016-Jun-25 01:27N 40°45' W 074°01'3 3.9
2016-Jun-25 00:34N 40°42' W 074°02'3 3.3
2016-Jun-24 23:34N 40°45' W 074°01'0 0.1
2016-Jun-24 18:23N 40°45' W 074°01'1 1.1
2016-Jun-24 17:33N 40°44' W 074°01'1 1.4
2016-Jun-24 16:33N 40°43' W 074°02'2 2.3
2016-Jun-24 15:33N 40°45' W 074°01'0 0.0
2016-Jun-24 01:30N 40°45' W 074°01'4 4.3
2016-Jun-24 00:33N 40°41' W 074°03'4 3.6
2016-Jun-23 23:33N 40°44' W 074°01'1 0.5
2016-Jun-23 22:33N 40°45' W 074°01'0 0.0
2016-Jun-23 21:33N 40°45' W 074°01'0 0.0
2016-Jun-23 20:33N 40°45' W 074°01'0 0.0
2016-Jun-23 19:33N 40°45' W 074°01'0 0.0
2016-Jun-23 18:33N 40°45' W 074°01'1 1.5
2016-Jun-23 17:33N 40°44' W 074°01'1 0.9
2016-Jun-23 16:33N 40°43' W 074°01'3 0.4
2016-Jun-23 08:33N 40°46' W 074°01'1 1.2
2016-Jun-23 07:33N 40°44' W 074°01'1 0.7
2016-Jun-23 05:33N 40°43' W 074°01'3 2.6
2016-Jun-23 04:33N 40°46' W 074°01'0 0.0
2016-Jun-23 03:33N 40°46' W 074°01'1 0.8
2016-Jun-23 02:33N 40°45' W 074°01'0 0.0
2016-Jun-23 01:33N 40°45' W 074°01'3 3.4
2016-Jun-23 00:33N 40°42' W 074°02'3 3.2
2016-Jun-22 23:33N 40°45' W 074°01'0 0.1
2016-Jun-22 19:33N 40°45' W 074°01'0 0.0
2016-Jun-22 18:33N 40°45' W 074°01'1 1.4
2016-Jun-22 17:33N 40°43' W 074°01'0 0.4
2016-Jun-22 16:33N 40°43' W 074°01'2 1.8
2016-Jun-22 15:33N 40°45' W 074°01'0 0.0
2016-Jun-22 05:28N 40°45' W 074°01'4 4.0
2016-Jun-22 04:33N 40°41' W 074°02'4 1.2
2016-Jun-22 01:28N 40°45' W 074°01'4 4.2
2016-Jun-22 00:34N 40°41' W 074°02'4 3.7
2016-Jun-21 23:33N 40°45' W 074°01'0 0.4
2016-Jun-21 22:33N 40°45' W 074°01'1 0.2
2016-Jun-21 17:33N 40°44' W 074°01'2 2.0
2016-Jun-21 16:33N 40°42' W 074°01'3 3.1
2016-Jun-21 15:33N 40°45' W 074°01'0 0.0
2016-Jun-21 01:33N 40°45' W 074°01'3 3.4
2016-Jun-21 00:33N 40°42' W 074°02'4 3.8
2016-Jun-20 23:33N 40°45' W 074°01'1 0.2
2016-Jun-20 17:33N 40°44' W 074°01'2 1.9
2016-Jun-20 16:33N 40°42' W 074°01'3 2.7
2016-Jun-20 15:33N 40°45' W 074°01'0 0.0
2016-Jun-20 03:33N 40°45' W 074°01'1 0.7
2016-Jun-20 02:33N 40°46' W 074°01'1 0.8
2016-Jun-20 01:33N 40°45' W 074°01'3 3.0
2016-Jun-20 00:33N 40°42' W 074°02'2 2.5
2016-Jun-19 23:33N 40°44' W 074°01'1 1.2
2016-Jun-19 22:33N 40°46' W 074°01'1 0.8
2016-Jun-19 21:33N 40°45' W 074°01'1 0.2
2016-Jun-19 17:33N 40°44' W 074°01'2 2.3
2016-Jun-19 16:33N 40°42' W 074°01'2 0.1
2016-Jun-19 01:33N 40°44' W 074°01'2 1.9
2016-Jun-19 00:33N 40°42' W 074°00'3 3.4
2016-Jun-18 23:33N 40°46' W 074°01'1 0.7
2016-Jun-18 22:33N 40°45' W 074°01'1 0.3
2016-Jun-18 17:33N 40°44' W 074°01'2 1.7
2016-Jun-18 16:33N 40°42' W 074°01'3 3.0
2016-Jun-18 15:33N 40°45' W 074°01'0 0.0
2016-Jun-18 10:19N 40°45' W 074°01'1 1.1
2016-Jun-18 09:34N 40°46' W 074°01'2 2.0
2016-Jun-18 08:34N 40°44' W 074°01'2 2.3
2016-Jun-18 07:34N 40°43' W 073°59'1 1.0
2016-Jun-18 06:33N 40°42' W 074°00'5 4.6
2016-Jun-18 05:34N 40°47' W 073°60'2 1.5
2016-Jun-18 04:34N 40°46' W 074°01'0 0.0
2016-Jun-18 03:34N 40°46' W 074°01'1 0.8
2016-Jun-18 02:34N 40°45' W 074°01'0 0.0
2016-Jun-18 01:34N 40°45' W 074°01'4 3.8
2016-Jun-18 00:34N 40°41' W 074°02'4 3.9
2016-Jun-17 23:34N 40°45' W 074°01'0 0.3
2016-Jun-17 22:34N 40°45' W 074°01'0 0.0
2016-Jun-17 21:34N 40°45' W 074°01'0 0.0
2016-Jun-17 18:11N 40°45' W 074°01'1 1.8
2016-Jun-17 17:33N 40°44' W 074°01'  
Track history (hours):
 
Tides and Currents Weather Stations Pressure Air Temp Water Temp Dewpoint Dewpoint Depression Visibility Wind Speed Wind Dir Waves Ship Positions

Spirit Of New York

Owner: SPIRIT CRUISES LLC, NEW YORK, NY. More information available from US FCC via Universal Licensing System and Coast Guard Vessel Documentation Center.

Last reported at 2016-Jun-27 17:33 UTC. Time now 2016-Jun-28 11:38 UTC.
Position N 40°42' W 074°02'.

Length 62 m.

Type: Passenger vessel. MMSI: 338897000.

Date/timePositionNaut miles runAvg speedWind from/ knotsBaromVisibWave heightAir tempDewpointWater temp
2016-Jun-27 17:33N 40°42' W 074°02'1 1.0
2016-Jun-27 16:33N 40°43' W 074°01'2 0.1
2016-Jun-27 02:18N 40°45' W 074°01'2 2.1
2016-Jun-27 01:33N 40°44' W 074°02'2 1.6
2016-Jun-27 00:33N 40°42' W 074°01'3 0.5
2016-Jun-26 18:07N 40°45' W 074°01'1 1.2
2016-Jun-26 17:33N 40°44' W 074°01'2 2.4
2016-Jun-26 16:33N 40°42' W 074°01'3 0.2
2016-Jun-26 02:33N 40°45' W 074°01'0 0.0
2016-Jun-26 01:33N 40°45' W 074°01'3 3.5
2016-Jun-26 00:33N 40°42' W 074°02'4 4.2
2016-Jun-25 23:33N 40°46' W 074°01'1 0.8
2016-Jun-25 22:33N 40°45' W 074°01'0 0.0
2016-Jun-25 21:33N 40°45' W 074°01'0 0.0
2016-Jun-25 20:33N 40°45' W 074°01'0 0.0
2016-Jun-25 19:33N 40°45' W 074°01'1 0.8
2016-Jun-25 18:33N 40°44' W 074°01'3 2.7
2016-Jun-25 17:33N 40°42' W 074°00'4 4.4
2016-Jun-25 16:33N 40°46' W 074°00'1 1.4
2016-Jun-25 15:33N 40°45' W 074°01'0 0.0
2016-Jun-25 01:27N 40°45' W 074°01'3 3.9
2016-Jun-25 00:34N 40°42' W 074°02'3 3.3
2016-Jun-24 23:34N 40°45' W 074°01'0 0.1
2016-Jun-24 18:23N 40°45' W 074°01'1 1.1
2016-Jun-24 17:33N 40°44' W 074°01'1 1.4
2016-Jun-24 16:33N 40°43' W 074°02'2 2.3
2016-Jun-24 15:33N 40°45' W 074°01'0 0.0
2016-Jun-24 01:30N 40°45' W 074°01'4 4.3
2016-Jun-24 00:33N 40°41' W 074°03'4 3.6
2016-Jun-23 23:33N 40°44' W 074°01'1 0.5
2016-Jun-23 22:33N 40°45' W 074°01'0 0.0
2016-Jun-23 21:33N 40°45' W 074°01'0 0.0
2016-Jun-23 20:33N 40°45' W 074°01'0 0.0
2016-Jun-23 19:33N 40°45' W 074°01'0 0.0
2016-Jun-23 18:33N 40°45' W 074°01'1 1.5
2016-Jun-23 17:33N 40°44' W 074°01'1 0.9
2016-Jun-23 16:33N 40°43' W 074°01'3 0.4
2016-Jun-23 08:33N 40°46' W 074°01'1 1.2
2016-Jun-23 07:33N 40°44' W 074°01'1 0.7
2016-Jun-23 05:33N 40°43' W 074°01'3 2.6
2016-Jun-23 04:33N 40°46' W 074°01'0 0.0
2016-Jun-23 03:33N 40°46' W 074°01'1 0.8
2016-Jun-23 02:33N 40°45' W 074°01'0 0.0
2016-Jun-23 01:33N 40°45' W 074°01'3 3.4
2016-Jun-23 00:33N 40°42' W 074°02'3 3.2
2016-Jun-22 23:33N 40°45' W 074°01'0 0.1
2016-Jun-22 19:33N 40°45' W 074°01'0 0.0
2016-Jun-22 18:33N 40°45' W 074°01'1 1.4
2016-Jun-22 17:33N 40°43' W 074°01'0 0.4
2016-Jun-22 16:33N 40°43' W 074°01'2 1.8
2016-Jun-22 15:33N 40°45' W 074°01'0 0.0
2016-Jun-22 05:28N 40°45' W 074°01'4 4.0
2016-Jun-22 04:33N 40°41' W 074°02'4 1.2
2016-Jun-22 01:28N 40°45' W 074°01'4 4.2
2016-Jun-22 00:34N 40°41' W 074°02'4 3.7
2016-Jun-21 23:33N 40°45' W 074°01'0 0.4
2016-Jun-21 22:33N 40°45' W 074°01'1 0.2
2016-Jun-21 17:33N 40°44' W 074°01'2 2.0
2016-Jun-21 16:33N 40°42' W 074°01'3 3.1
2016-Jun-21 15:33N 40°45' W 074°01'0 0.0
2016-Jun-21 01:33N 40°45' W 074°01'3 3.4
2016-Jun-21 00:33N 40°42' W 074°02'4 3.8
2016-Jun-20 23:33N 40°45' W 074°01'1 0.2
2016-Jun-20 17:33N 40°44' W 074°01'2 1.9
2016-Jun-20 16:33N 40°42' W 074°01'3 2.7
2016-Jun-20 15:33N 40°45' W 074°01'0 0.0
2016-Jun-20 03:33N 40°45' W 074°01'1 0.7
2016-Jun-20 02:33N 40°46' W 074°01'1 0.8
2016-Jun-20 01:33N 40°45' W 074°01'3 3.0
2016-Jun-20 00:33N 40°42' W 074°02'2 2.5
2016-Jun-19 23:33N 40°44' W 074°01'1 1.2
2016-Jun-19 22:33N 40°46' W 074°01'1 0.8
2016-Jun-19 21:33N 40°45' W 074°01'1 0.2
2016-Jun-19 17:33N 40°44' W 074°01'2 2.3
2016-Jun-19 16:33N 40°42' W 074°01'2 0.1
2016-Jun-19 01:33N 40°44' W 074°01'2 1.9
2016-Jun-19 00:33N 40°42' W 074°00'3 3.4
2016-Jun-18 23:33N 40°46' W 074°01'1 0.7
2016-Jun-18 22:33N 40°45' W 074°01'1 0.3
2016-Jun-18 17:33N 40°44' W 074°01'2 1.7
2016-Jun-18 16:33N 40°42' W 074°01'3 3.0
2016-Jun-18 15:33N 40°45' W 074°01'0 0.0
2016-Jun-18 10:19N 40°45' W 074°01'1 1.1
2016-Jun-18 09:34N 40°46' W 074°01'2 2.0
2016-Jun-18 08:34N 40°44' W 074°01'2 2.3
2016-Jun-18 07:34N 40°43' W 073°59'1 1.0
2016-Jun-18 06:33N 40°42' W 074°00'5 4.6
2016-Jun-18 05:34N 40°47' W 073°60'2 1.5
2016-Jun-18 04:34N 40°46' W 074°01'0 0.0
2016-Jun-18 03:34N 40°46' W 074°01'1 0.8
2016-Jun-18 02:34N 40°45' W 074°01'0 0.0
2016-Jun-18 01:34N 40°45' W 074°01'4 3.8
2016-Jun-18 00:34N 40°41' W 074°02'4 3.9
2016-Jun-17 23:34N 40°45' W 074°01'0 0.3
2016-Jun-17 22:34N 40°45' W 074°01'0 0.0
2016-Jun-17 21:34N 40°45' W 074°01'0 0.0
2016-Jun-17 18:11N 40°45' W 074°01'1 1.8
2016-Jun-17 17:33N 40°44' W 074°01'  

Dump ship's entire track history